createdAt,value
2018-08-27T00:00:10.473Z,15.50
2018-08-27T00:02:38.891Z,15.60
2018-08-27T00:05:07.331Z,15.60
2018-08-27T00:07:35.800Z,15.50
2018-08-27T00:10:04.373Z,15.40
2018-08-27T00:12:32.829Z,15.50
2018-08-27T00:15:01.281Z,15.50
2018-08-27T00:17:29.981Z,15.50
2018-08-27T00:19:58.422Z,15.40
2018-08-27T00:22:28.651Z,15.50
2018-08-27T00:24:57.151Z,15.50
2018-08-27T00:27:25.634Z,15.40
2018-08-27T00:29:54.119Z,15.40
2018-08-27T00:32:22.561Z,15.40
2018-08-27T00:34:50.992Z,15.30
2018-08-27T00:37:19.424Z,15.30
2018-08-27T00:39:47.905Z,15.30
2018-08-27T00:42:16.401Z,15.20
2018-08-27T00:44:44.872Z,15.30
2018-08-27T00:47:13.357Z,15.30
2018-08-27T00:49:41.800Z,15.20
2018-08-27T00:52:10.292Z,15.30
2018-08-27T00:54:38.772Z,15.20
2018-08-27T00:57:07.419Z,15.30
2018-08-27T00:59:35.861Z,15.00
2018-08-27T01:02:04.325Z,15.00
2018-08-27T01:04:32.801Z,15.10
2018-08-27T01:07:01.245Z,14.80
2018-08-27T01:09:29.745Z,14.70
2018-08-27T01:11:58.276Z,14.60
2018-08-27T01:14:26.715Z,14.70
2018-08-27T01:16:55.152Z,14.80
2018-08-27T01:19:23.595Z,14.80
2018-08-27T01:21:52.187Z,14.80
2018-08-27T01:24:20.645Z,14.80
2018-08-27T01:26:49.058Z,14.90
2018-08-27T01:29:17.493Z,14.90
2018-08-27T01:31:51.141Z,14.90
2018-08-27T01:34:19.737Z,14.90
2018-08-27T01:36:48.211Z,14.80
2018-08-27T01:39:16.729Z,14.50
2018-08-27T01:41:45.201Z,14.40
2018-08-27T01:44:13.987Z,14.30
2018-08-27T01:46:42.491Z,14.40
2018-08-27T01:49:10.923Z,14.20
2018-08-27T01:51:39.380Z,14.10
2018-08-27T01:54:07.869Z,14.00
2018-08-27T01:56:36.311Z,13.90
2018-08-27T01:59:04.773Z,13.90
2018-08-27T02:01:33.294Z,13.90
2018-08-27T02:04:01.922Z,13.90
2018-08-27T02:06:36.635Z,14.00
2018-08-27T02:09:07.437Z,14.00
2018-08-27T02:11:36.595Z,14.20
2018-08-27T02:14:05.362Z,14.30
2018-08-27T02:16:34.005Z,14.20
2018-08-27T02:19:02.499Z,14.20
2018-08-27T02:21:30.956Z,14.30
2018-08-27T02:23:59.385Z,14.40
2018-08-27T02:26:28.393Z,14.40
2018-08-27T02:28:56.885Z,14.50
2018-08-27T02:31:25.328Z,14.60
2018-08-27T02:33:53.862Z,14.40
2018-08-27T02:36:22.289Z,14.30
2018-08-27T02:38:50.776Z,14.30
2018-08-27T02:41:19.246Z,14.30
2018-08-27T02:43:50.388Z,14.10
2018-08-27T02:46:19.388Z,14.20
2018-08-27T02:48:47.926Z,14.30
2018-08-27T02:51:16.332Z,14.30
2018-08-27T02:53:44.943Z,14.20
2018-08-27T02:56:13.378Z,14.00
2018-08-27T02:58:41.845Z,13.90
2018-08-27T03:01:10.282Z,14.00
2018-08-27T03:03:38.716Z,13.80
2018-08-27T03:06:07.238Z,13.80
2018-08-27T03:08:35.762Z,13.80
2018-08-27T03:11:04.186Z,13.90
2018-08-27T03:13:33.177Z,14.00
2018-08-27T03:16:01.706Z,13.90
2018-08-27T03:18:30.237Z,13.90
2018-08-27T03:20:58.569Z,13.70
2018-08-27T03:23:27.115Z,13.90
2018-08-27T03:25:55.577Z,14.00
2018-08-27T03:28:23.991Z,14.00
2018-08-27T03:30:52.493Z,13.80
2018-08-27T03:33:21.099Z,13.90
2018-08-27T03:35:49.710Z,13.90
2018-08-27T03:38:18.156Z,13.80
2018-08-27T03:40:46.707Z,13.90
2018-08-27T03:43:15.087Z,13.90
2018-08-27T03:45:43.485Z,14.00
2018-08-27T03:48:12.873Z,14.10
2018-08-27T03:50:41.344Z,14.20
2018-08-27T03:53:09.973Z,14.10
2018-08-27T03:55:38.692Z,13.90
2018-08-27T03:58:07.233Z,13.70
2018-08-27T04:00:35.871Z,13.70
2018-08-27T04:03:04.741Z,13.90
2018-08-27T04:05:33.219Z,14.00
2018-08-27T04:08:01.657Z,14.00
2018-08-27T04:10:30.292Z,14.00
2018-08-27T04:12:58.756Z,14.10
2018-08-27T04:15:27.211Z,14.10
2018-08-27T04:17:55.694Z,14.10
2018-08-27T04:20:24.127Z,14.00
2018-08-27T04:22:52.579Z,14.10
2018-08-27T04:25:21.011Z,14.20
2018-08-27T04:27:49.773Z,14.00
2018-08-27T04:30:18.357Z,14.00
2018-08-27T04:32:46.809Z,14.20
2018-08-27T04:35:16.173Z,14.20
2018-08-27T04:37:44.623Z,14.00
2018-08-27T04:40:13.053Z,14.00
2018-08-27T04:42:41.602Z,14.20
2018-08-27T04:45:10.015Z,14.20
2018-08-27T04:47:38.934Z,14.10
2018-08-27T04:50:07.431Z,14.00
2018-08-27T04:52:35.897Z,14.20
2018-08-27T04:55:04.777Z,14.30
2018-08-27T04:57:33.185Z,14.40
2018-08-27T05:00:05.385Z,14.40
2018-08-27T05:02:33.970Z,14.50
2018-08-27T05:05:02.633Z,14.40
2018-08-27T05:07:31.117Z,14.50
2018-08-27T05:09:59.575Z,14.50
2018-08-27T05:12:28.000Z,14.70
2018-08-27T05:14:56.456Z,14.60
2018-08-27T05:17:24.932Z,14.70
2018-08-27T05:19:53.380Z,14.70
2018-08-27T05:22:21.784Z,14.70
2018-08-27T05:24:50.256Z,14.80
2018-08-27T05:27:19.332Z,14.80
2018-08-27T05:29:47.778Z,14.80
2018-08-27T05:32:16.228Z,14.90
2018-08-27T05:34:47.219Z,14.90
2018-08-27T05:37:20.801Z,15.00
2018-08-27T05:39:50.360Z,15.00
2018-08-27T05:42:19.603Z,15.10
2018-08-27T05:44:48.043Z,15.10
2018-08-27T05:47:21.423Z,15.10
2018-08-27T05:49:50.894Z,15.20
2018-08-27T05:52:19.405Z,15.20
2018-08-27T05:54:48.955Z,15.20
2018-08-27T05:57:18.771Z,15.20
2018-08-27T05:59:47.205Z,15.30
2018-08-27T06:02:15.689Z,15.40
2018-08-27T06:04:51.670Z,15.40
2018-08-27T06:07:23.360Z,15.50
2018-08-27T06:09:53.800Z,15.50
2018-08-27T06:12:22.291Z,15.60
2018-08-27T06:14:50.773Z,15.60
2018-08-27T06:17:24.041Z,15.60
2018-08-27T06:19:53.813Z,15.60
2018-08-27T06:22:22.329Z,15.60
2018-08-27T06:24:51.672Z,15.60
2018-08-27T06:27:25.091Z,15.70
2018-08-27T06:29:59.599Z,15.70
2018-08-27T06:32:28.370Z,15.70
2018-08-27T06:34:56.783Z,15.70
2018-08-27T06:37:26.713Z,15.70
2018-08-27T06:40:00.854Z,15.70
2018-08-27T06:42:34.812Z,15.80
2018-08-27T06:45:04.287Z,15.90
2018-08-27T06:47:32.708Z,16.00
2018-08-27T06:50:01.356Z,16.10
2018-08-27T06:52:34.700Z,16.20
2018-08-27T06:55:09.405Z,16.20
2018-08-27T06:57:42.924Z,16.40
2018-08-27T07:00:16.025Z,16.50
2018-08-27T07:02:44.509Z,16.50
2018-08-27T07:05:13.088Z,16.50
2018-08-27T07:07:42.601Z,16.60
2018-08-27T07:10:11.479Z,16.60
2018-08-27T07:12:42.857Z,16.60
2018-08-27T07:15:12.267Z,16.60
2018-08-27T07:17:45.869Z,16.60
2018-08-27T07:20:14.490Z,16.70
2018-08-27T07:22:42.980Z,16.80
2018-08-27T07:25:11.405Z,16.90
2018-08-27T07:27:45.353Z,17.10
2018-08-27T07:30:16.248Z,17.20
2018-08-27T07:32:45.749Z,17.30
2018-08-27T07:35:14.241Z,17.40
2018-08-27T07:37:48.487Z,17.50
2018-08-27T07:40:23.881Z,17.70
2018-08-27T07:42:53.715Z,17.80
2018-08-27T07:45:22.191Z,17.70
2018-08-27T07:47:50.634Z,17.80
2018-08-27T07:50:22.857Z,17.90
2018-08-27T07:52:55.956Z,17.90
2018-08-27T07:55:27.023Z,17.90
2018-08-27T07:57:55.808Z,18.10
2018-08-27T08:00:25.366Z,18.10
2018-08-27T08:02:57.983Z,18.10
2018-08-27T08:05:30.069Z,18.00
2018-08-27T08:07:58.612Z,18.10
2018-08-27T08:10:28.437Z,18.10
2018-08-27T08:13:00.617Z,18.20
2018-08-27T08:15:33.232Z,18.10
2018-08-27T08:18:05.137Z,18.30
2018-08-27T08:20:33.879Z,18.30
2018-08-27T08:23:02.302Z,18.20
2018-08-27T08:25:32.760Z,18.20
2018-08-27T08:28:05.880Z,18.30
2018-08-27T08:30:36.700Z,18.30
2018-08-27T08:33:05.738Z,18.50
2018-08-27T08:35:34.657Z,18.70
2018-08-27T08:38:03.880Z,18.80
2018-08-27T08:40:32.432Z,18.70
2018-08-27T08:43:01.446Z,18.70
2018-08-27T08:45:30.931Z,18.70
2018-08-27T08:47:59.432Z,18.70
2018-08-27T08:50:28.844Z,18.70
2018-08-27T08:53:02.820Z,18.80
2018-08-27T08:55:36.072Z,18.80
2018-08-27T08:58:09.263Z,18.80
2018-08-27T09:03:10.850Z,19.00
2018-08-27T09:05:39.458Z,19.00
2018-08-27T09:08:11.399Z,19.00
2018-08-27T09:10:43.985Z,19.10
2018-08-27T09:13:15.388Z,19.20
2018-08-27T09:15:43.821Z,19.30
2018-08-27T09:18:13.202Z,19.20
2018-08-27T09:20:47.501Z,19.10
2018-08-27T09:23:20.539Z,19.00
2018-08-27T09:25:49.886Z,19.20
2018-08-27T09:28:18.380Z,19.50
2018-08-27T09:30:48.283Z,19.90
2018-08-27T09:33:23.614Z,20.10
2018-08-27T09:35:55.484Z,20.00
2018-08-27T09:38:24.236Z,20.10
2018-08-27T09:40:52.726Z,20.10
2018-08-27T09:43:23.209Z,20.30
2018-08-27T09:45:56.632Z,20.30
2018-08-27T09:48:30.280Z,20.40
2018-08-27T09:51:00.117Z,20.40
2018-08-27T09:53:28.852Z,20.50
2018-08-27T09:56:00.227Z,20.50
2018-08-27T09:58:31.513Z,20.40
2018-08-27T10:01:05.150Z,20.50
2018-08-27T10:03:34.427Z,20.50
2018-08-27T10:06:02.912Z,20.70
2018-08-27T10:08:31.858Z,20.80
2018-08-27T10:11:02.216Z,21.00
2018-08-27T10:13:30.695Z,21.10
2018-08-27T10:16:01.113Z,21.10
2018-08-27T10:18:34.966Z,20.90
2018-08-27T10:21:05.962Z,20.90
2018-08-27T10:23:34.864Z,21.00
2018-08-27T10:26:03.905Z,21.00
2018-08-27T10:28:33.465Z,21.10
2018-08-27T10:31:02.176Z,21.00
2018-08-27T10:33:30.751Z,21.20
2018-08-27T10:36:03.227Z,21.40
2018-08-27T10:38:38.137Z,21.50
2018-08-27T10:41:12.382Z,21.50
2018-08-27T10:43:44.613Z,21.60
2018-08-27T10:46:18.545Z,21.90
2018-08-27T10:48:51.588Z,22.20
2018-08-27T10:51:21.087Z,22.60
2018-08-27T10:53:50.278Z,22.70
2018-08-27T10:56:22.044Z,22.40
2018-08-27T10:58:54.299Z,22.20
2018-08-27T11:01:27.497Z,21.90
2018-08-27T11:03:56.956Z,22.00
2018-08-27T11:06:25.505Z,22.00
2018-08-27T11:08:55.232Z,22.50
2018-08-27T11:11:28.793Z,22.90
2018-08-27T11:14:01.920Z,22.80
2018-08-27T11:16:36.365Z,23.20
2018-08-27T11:19:11.062Z,23.70
2018-08-27T11:21:44.474Z,23.60
2018-08-27T11:24:18.326Z,23.20
2018-08-27T11:26:48.019Z,23.10
2018-08-27T11:29:18.025Z,23.10
2018-08-27T11:31:47.359Z,23.00
2018-08-27T11:34:20.282Z,23.10
2018-08-27T11:36:53.656Z,22.70
2018-08-27T11:39:28.762Z,22.40
2018-08-27T11:42:02.005Z,22.30
2018-08-27T11:44:34.944Z,22.30
2018-08-27T11:47:04.838Z,22.20
2018-08-27T11:49:33.347Z,22.50
2018-08-27T11:52:06.558Z,22.90
2018-08-27T11:54:40.276Z,23.10
2018-08-27T11:57:10.739Z,23.30
2018-08-27T11:59:44.056Z,23.10
2018-08-27T12:02:18.130Z,23.30
2018-08-27T12:04:46.702Z,23.60
2018-08-27T12:07:15.188Z,23.50
2018-08-27T12:09:48.906Z,23.60
2018-08-27T12:12:21.300Z,23.70
2018-08-27T12:14:54.657Z,23.80
2018-08-27T12:17:27.086Z,23.40
2018-08-27T12:19:55.761Z,23.40
2018-08-27T12:22:24.990Z,23.20
2018-08-27T12:24:55.478Z,23.10
2018-08-27T12:27:27.401Z,22.90
2018-08-27T12:29:55.924Z,22.70
2018-08-27T12:32:24.575Z,22.70
2018-08-27T12:34:53.561Z,22.90
2018-08-27T12:37:22.236Z,22.80
2018-08-27T12:39:51.143Z,22.70
2018-08-27T12:42:22.710Z,22.80
2018-08-27T12:44:51.877Z,23.10
2018-08-27T12:47:21.447Z,23.30
2018-08-27T12:49:50.785Z,23.20
2018-08-27T12:52:23.096Z,22.90
2018-08-27T12:54:51.607Z,23.00
2018-08-27T12:57:20.110Z,23.20
2018-08-27T12:59:50.287Z,23.00
2018-08-27T13:02:19.082Z,23.00
2018-08-27T13:04:47.642Z,23.00
2018-08-27T13:07:18.954Z,23.10
2018-08-27T13:09:52.350Z,23.10
2018-08-27T13:12:21.179Z,23.20
2018-08-27T13:14:49.693Z,23.00
2018-08-27T13:17:19.551Z,23.10
2018-08-27T13:19:52.291Z,23.30
2018-08-27T13:22:21.818Z,23.40
2018-08-27T13:24:50.296Z,23.60
2018-08-27T13:27:21.921Z,23.80
2018-08-27T13:29:54.914Z,23.70
2018-08-27T13:32:28.419Z,23.70
2018-08-27T13:34:57.675Z,23.50
2018-08-27T13:37:26.191Z,23.70
2018-08-27T13:44:49.533Z,23.80
2018-08-27T13:47:22.809Z,23.30
2018-08-27T13:49:57.286Z,23.30
2018-08-27T13:52:33.067Z,23.30
2018-08-27T13:55:05.595Z,23.10
2018-08-27T13:57:38.625Z,23.10
2018-08-27T14:00:17.816Z,23.20
2018-08-27T14:02:48.063Z,23.20
2018-08-27T14:05:19.081Z,23.20
2018-08-27T14:10:21.237Z,23.40
2018-08-27T14:12:49.810Z,23.50
2018-08-27T14:15:21.693Z,23.40
2018-08-27T14:17:52.695Z,23.40
2018-08-27T14:20:21.208Z,23.40
2018-08-27T14:22:49.930Z,23.40
2018-08-27T14:25:24.580Z,23.50
2018-08-27T14:27:55.492Z,23.50
2018-08-27T14:30:23.956Z,23.60
2018-08-27T14:32:53.752Z,23.50
2018-08-27T14:35:25.096Z,23.20
2018-08-27T14:37:58.079Z,23.10
2018-08-27T14:40:28.091Z,22.90
2018-08-27T14:42:56.555Z,22.80
2018-08-27T14:45:25.031Z,22.70
2018-08-27T14:47:53.542Z,22.60
2018-08-27T14:50:22.013Z,22.60
2018-08-27T14:52:50.798Z,22.80
2018-08-27T14:55:21.809Z,23.00
2018-08-27T14:57:50.545Z,22.70
2018-08-27T15:00:19.033Z,22.50
2018-08-27T15:02:47.721Z,22.50
2018-08-27T15:05:16.304Z,22.70
2018-08-27T15:07:44.759Z,22.80
2018-08-27T15:10:13.375Z,22.70
2018-08-27T15:12:41.793Z,22.70
2018-08-27T15:15:10.252Z,22.50
2018-08-27T15:17:41.038Z,22.50
2018-08-27T15:20:09.738Z,22.30
2018-08-27T15:22:38.236Z,22.30
2018-08-27T15:25:07.447Z,22.40
2018-08-27T15:27:37.071Z,22.60
2018-08-27T15:30:06.321Z,22.80
2018-08-27T15:32:34.786Z,22.90
2018-08-27T15:35:03.249Z,22.60
2018-08-27T15:37:32.090Z,22.50
2018-08-27T15:40:00.723Z,22.40
2018-08-27T15:42:30.639Z,22.30
2018-08-27T15:45:03.541Z,22.30
2018-08-27T15:47:32.001Z,22.40
2018-08-27T15:50:00.473Z,22.60
2018-08-27T15:52:29.317Z,22.60
2018-08-27T15:54:57.771Z,22.60
2018-08-27T15:57:26.544Z,22.40
2018-08-27T15:59:54.925Z,22.30
2018-08-27T16:02:23.378Z,22.20
2018-08-27T16:04:51.853Z,22.20
2018-08-27T16:07:20.551Z,22.10
2018-08-27T16:09:49.080Z,22.10
2018-08-27T16:12:17.732Z,21.90
2018-08-27T16:14:46.308Z,21.80
2018-08-27T16:17:14.811Z,21.70
2018-08-27T16:19:43.273Z,21.70
2018-08-27T16:22:11.972Z,21.70
2018-08-27T16:24:40.732Z,21.80
2018-08-27T16:27:11.120Z,21.80
2018-08-27T16:29:40.382Z,21.80
2018-08-27T16:32:09.163Z,21.80
2018-08-27T16:34:37.816Z,21.70
2018-08-27T16:37:06.862Z,21.60
2018-08-27T16:39:35.532Z,21.50
2018-08-27T16:42:04.013Z,21.50
2018-08-27T16:44:32.480Z,21.50
2018-08-27T16:47:00.928Z,21.40
2018-08-27T16:49:29.408Z,21.40
2018-08-27T16:51:57.917Z,21.40
2018-08-27T16:54:26.896Z,21.40
2018-08-27T16:56:55.519Z,21.30
2018-08-27T16:59:24.221Z,21.30
2018-08-27T17:01:53.003Z,21.20
2018-08-27T17:04:21.581Z,21.30
2018-08-27T17:06:50.041Z,21.20
2018-08-27T17:09:18.507Z,21.10
2018-08-27T17:11:47.047Z,21.10
2018-08-27T17:14:15.662Z,21.10
2018-08-27T17:16:44.141Z,21.10
2018-08-27T17:19:13.061Z,21.00
2018-08-27T17:21:41.673Z,21.00
2018-08-27T17:24:10.209Z,21.00
2018-08-27T17:26:38.787Z,21.00
2018-08-27T17:29:07.348Z,20.90
2018-08-27T17:31:35.870Z,20.90
2018-08-27T17:34:04.611Z,20.90
2018-08-27T17:36:33.087Z,20.80
2018-08-27T17:39:03.061Z,20.80
2018-08-27T17:41:31.520Z,20.80
2018-08-27T17:44:00.066Z,20.80
2018-08-27T17:46:28.887Z,20.70
2018-08-27T17:48:57.398Z,20.70
2018-08-27T17:51:26.064Z,20.60
2018-08-27T17:53:54.598Z,20.60
2018-08-27T17:56:23.490Z,20.50
2018-08-27T17:58:52.000Z,20.40
2018-08-27T18:01:20.524Z,20.40
2018-08-27T18:03:48.965Z,20.30
2018-08-27T18:06:17.963Z,20.20
2018-08-27T18:08:46.896Z,20.10
2018-08-27T18:11:15.972Z,20.10
2018-08-27T18:13:45.825Z,20.00
2018-08-27T18:16:14.308Z,20.00
2018-08-27T18:18:42.771Z,20.00
2018-08-27T18:21:11.303Z,20.00
2018-08-27T18:23:39.800Z,20.00
2018-08-27T18:26:08.417Z,19.90
2018-08-27T18:28:36.983Z,19.90
2018-08-27T18:31:05.613Z,19.70
2018-08-27T18:33:34.089Z,19.70
2018-08-27T18:36:02.658Z,19.60
2018-08-27T18:38:31.224Z,19.60
2018-08-27T18:40:59.798Z,19.50
2018-08-27T18:43:28.560Z,19.50
2018-08-27T18:45:57.015Z,19.50
2018-08-27T18:48:25.828Z,19.50
2018-08-27T18:50:54.272Z,19.40
2018-08-27T18:53:22.818Z,19.40
2018-08-27T18:55:51.377Z,19.40
2018-08-27T18:58:19.806Z,19.30
2018-08-27T19:00:48.728Z,19.20
2018-08-27T19:03:18.894Z,19.20
2018-08-27T19:05:47.379Z,19.20
2018-08-27T19:08:17.462Z,19.20
2018-08-27T19:10:45.918Z,19.20
2018-08-27T19:13:14.434Z,19.20
2018-08-27T19:15:43.182Z,19.20
2018-08-27T19:18:11.796Z,19.20
2018-08-27T19:20:40.560Z,19.20
2018-08-27T19:23:09.208Z,19.20
2018-08-27T19:25:37.907Z,19.20
2018-08-27T19:28:06.666Z,19.10
2018-08-27T19:30:35.884Z,19.10
2018-08-27T19:33:04.385Z,19.10
2018-08-27T19:35:33.510Z,19.00
2018-08-27T19:38:02.068Z,18.90
2018-08-27T19:40:30.592Z,19.00
2018-08-27T19:42:59.179Z,18.90
2018-08-27T19:45:27.964Z,18.90
2018-08-27T19:47:56.470Z,18.90
2018-08-27T19:50:25.030Z,18.90
2018-08-27T19:52:54.517Z,18.80
2018-08-27T19:55:23.068Z,18.90
2018-08-27T19:57:51.639Z,18.90
2018-08-27T20:00:20.060Z,18.80
2018-08-27T20:02:48.500Z,18.90
2018-08-27T20:05:16.962Z,18.90
2018-08-27T20:07:45.421Z,18.90
2018-08-27T20:10:14.118Z,18.80
2018-08-27T20:12:42.648Z,18.80
2018-08-27T20:15:11.182Z,18.80
2018-08-27T20:17:39.896Z,18.70
2018-08-27T20:20:08.474Z,18.70
2018-08-27T20:22:37.039Z,18.70
2018-08-27T20:25:05.964Z,18.70
2018-08-27T20:27:34.442Z,18.70
2018-08-27T20:30:03.028Z,18.60
2018-08-27T20:32:31.568Z,18.60
2018-08-27T20:35:00.069Z,18.60
2018-08-27T20:37:29.654Z,18.60
2018-08-27T20:39:58.140Z,18.50
2018-08-27T20:42:27.117Z,18.50
2018-08-27T20:44:55.680Z,18.50
2018-08-27T20:47:24.337Z,18.50
2018-08-27T20:49:52.951Z,18.50
2018-08-27T20:52:21.705Z,18.50
2018-08-27T20:54:50.163Z,18.50
2018-08-27T20:57:18.657Z,18.50
2018-08-27T20:59:47.101Z,18.50
2018-08-27T21:02:15.595Z,18.50
2018-08-27T21:04:44.149Z,18.40
2018-08-27T21:07:12.759Z,18.40
2018-08-27T21:09:41.223Z,18.40
2018-08-27T21:12:09.796Z,18.40
2018-08-27T21:14:47.509Z,18.40
2018-08-27T21:17:15.973Z,18.30
2018-08-27T21:19:44.466Z,18.30
2018-08-27T21:22:12.926Z,18.30
2018-08-27T21:24:41.449Z,18.30
2018-08-27T21:27:09.905Z,18.30
2018-08-27T21:29:38.513Z,18.40
2018-08-27T21:32:07.579Z,18.40
2018-08-27T21:34:36.085Z,18.40
2018-08-27T21:37:04.737Z,18.30
2018-08-27T21:39:33.190Z,18.30
2018-08-27T21:42:01.796Z,18.30
2018-08-27T21:44:30.199Z,18.30
2018-08-27T21:46:59.893Z,18.20
2018-08-27T21:49:28.350Z,18.20
2018-08-27T21:51:56.820Z,18.30
2018-08-27T21:54:25.322Z,18.20
2018-08-27T21:56:53.792Z,18.20
2018-08-27T21:59:22.321Z,18.20
2018-08-27T22:01:50.817Z,18.10
2018-08-27T22:04:19.271Z,18.10
2018-08-27T22:06:47.913Z,18.10
2018-08-27T22:09:16.517Z,18.10
2018-08-27T22:11:44.971Z,18.10
2018-08-27T22:14:13.477Z,18.00
2018-08-27T22:16:42.015Z,18.00
2018-08-27T22:19:10.514Z,18.00
2018-08-27T22:21:38.971Z,18.10
2018-08-27T22:24:07.535Z,18.00
2018-08-27T22:26:36.095Z,18.00
2018-08-27T22:29:04.632Z,18.00
2018-08-27T22:31:34.161Z,18.00
2018-08-27T22:34:02.657Z,18.00
2018-08-27T22:36:31.085Z,18.00
2018-08-27T22:38:59.620Z,18.00
2018-08-27T22:41:28.049Z,17.90
2018-08-27T22:43:56.620Z,17.90
2018-08-27T22:46:25.437Z,17.90
2018-08-27T22:48:53.867Z,17.90
2018-08-27T22:51:22.333Z,17.90
2018-08-27T22:53:50.835Z,17.90
2018-08-27T22:56:19.267Z,17.90
2018-08-27T22:58:48.053Z,17.90
2018-08-27T23:01:16.497Z,17.90
2018-08-27T23:03:51.019Z,17.90
2018-08-27T23:06:19.443Z,17.90
2018-08-27T23:08:47.939Z,17.90
2018-08-27T23:11:16.497Z,17.90
2018-08-27T23:13:45.066Z,17.90
2018-08-27T23:16:18.657Z,17.90
2018-08-27T23:18:47.195Z,17.90
2018-08-27T23:21:15.737Z,17.90
2018-08-27T23:23:44.208Z,17.90
2018-08-27T23:26:12.638Z,17.80
2018-08-27T23:28:41.136Z,17.80
2018-08-27T23:31:09.604Z,17.80
2018-08-27T23:33:38.282Z,17.80
2018-08-27T23:36:07.122Z,17.80
2018-08-27T23:38:35.602Z,17.80
2018-08-27T23:41:04.025Z,17.80
2018-08-27T23:43:32.664Z,17.80
2018-08-27T23:46:01.340Z,17.80
2018-08-27T23:48:29.780Z,17.80
2018-08-27T23:50:58.200Z,17.70
2018-08-27T23:53:26.722Z,17.70
2018-08-27T23:55:55.200Z,17.70
2018-08-27T23:58:23.663Z,17.70
